No1 Toa Maru — JG5370 — position and weather

sailwx.info

Track history (hours):
 
Tides and Currents Weather Stations Pressure Air Temp Water Temp Dewpoint Dewpoint Depression Visibility Wind Speed Wind Dir Waves Ship Positions

No1 Toa Maru

Last reported at 2017-Nov-23 07:30 UTC. Time now 2017-Nov-23 07:40 UTC.
Position N 35°13' E 139°45'.

Length 38 m; draft 3.2 m.

Type: Tug. MMSI: 431100338.

Date/timePositionNaut miles runAvg speedWind from/ knotsBaromVisibWave heightAir tempDewpointWater temp
2017-Nov-23 07:30N 35°13' E 139°45'3 5.7
2017-Nov-23 07:00N 35°10' E 139°46'0 1.0
2017-Nov-23 06:30N 35°11' E 139°45'3 6.1
2017-Nov-23 05:59N 35°13' E 139°43'0 0.0
2017-Nov-23 05:30N 35°13' E 139°43'0 0.0
2017-Nov-23 05:00N 35°13' E 139°43'0 0.0
2017-Nov-23 04:30N 35°13' E 139°43'5 9.1
2017-Nov-23 04:00N 35°10' E 139°47'1 1.3
2017-Nov-23 03:30N 35°10' E 139°46'4 8.1
2017-Nov-23 03:00N 35°13' E 139°43'0 0.0
2017-Nov-23 02:30N 35°13' E 139°43'0 0.0
2017-Nov-23 02:00N 35°13' E 139°43'0 0.0
2017-Nov-23 01:30N 35°13' E 139°43'0 0.0
2017-Nov-23 01:00N 35°13' E 139°43'2 4.6
2017-Nov-23 00:30N 35°12' E 139°46'1 2.9
2017-Nov-23 00:00N 35°14' E 139°46'2 4.4
2017-Nov-22 23:30N 35°13' E 139°43'0 0.0
2017-Nov-22 23:00N 35°13' E 139°43'0 0.0
2017-Nov-22 22:30N 35°13' E 139°43'4 7.6
2017-Nov-22 22:00N 35°10' E 139°46'1 2.2
2017-Nov-22 21:30N 35°11' E 139°47'4 7.3
2017-Nov-22 21:00N 35°13' E 139°43'0 0.0
2017-Nov-22 20:30N 35°13' E 139°43'1 2.9
2017-Nov-22 20:00N 35°13' E 139°45'1 2.9
2017-Nov-22 19:30N 35°14' E 139°46'  
2017-Nov-20 00:30N 35°13' E 139°44'1 1.3
2017-Nov-20 00:00N 35°13' E 139°43'0 0.0
2017-Nov-19 23:30N 35°13' E 139°43'4 8.5
2017-Nov-19 23:00N 35°10' E 139°46'0 0.7
2017-Nov-19 22:30N 35°10' E 139°46'4 7.7
2017-Nov-19 22:00N 35°13' E 139°43'0 0.0
2017-Nov-19 21:30N 35°13' E 139°43'3 6.0
2017-Nov-19 21:00N 35°11' E 139°45'1 1.4
2017-Nov-19 20:30N 35°11' E 139°46'3 7.0
2017-Nov-19 20:00N 35°13' E 139°43'0 0.0
2017-Nov-19 19:30N 35°13' E 139°43'0 0.0
2017-Nov-19 19:00N 35°13' E 139°43'0 0.0
2017-Nov-19 18:30N 35°13' E 139°43'0 0.8
2017-Nov-19 18:00N 35°13' E 139°44'2 3.3
2017-Nov-19 17:30N 35°13' E 139°46'2 4.1
2017-Nov-19 17:00N 35°13' E 139°43'0 0.0
2017-Nov-19 16:30N 35°13' E 139°43'0 0.0
2017-Nov-19 16:00N 35°13' E 139°43'0 0.0
2017-Nov-19 15:30N 35°13' E 139°43'0 0.0
2017-Nov-19 15:00N 35°13' E 139°43'0 0.3
2017-Nov-19 14:31N 35°13' E 139°43'2 4.1
2017-Nov-19 14:00N 35°13' E 139°46'2 3.2
2017-Nov-19 13:30N 35°13' E 139°44'0 0.9
2017-Nov-19 13:00N 35°13' E 139°43'0 0.0
2017-Nov-19 12:30N 35°13' E 139°43'0 0.0
2017-Nov-19 12:00N 35°13' E 139°43'0 0.0
2017-Nov-19 11:30N 35°13' E 139°43'0 0.0
2017-Nov-19 11:00N 35°13' E 139°43'0 0.0
2017-Nov-19 10:30N 35°13' E 139°43'0 0.0
2017-Nov-19 10:00N 35°13' E 139°43'0 0.0
2017-Nov-19 09:30N 35°13' E 139°43'1 1.5
2017-Nov-19 09:00N 35°13' E 139°44'1 1.9
2017-Nov-19 08:30N 35°13' E 139°45'1 1.8
2017-Nov-19 08:00N 35°12' E 139°45'3 5.6
2017-Nov-19 07:30N 35°09' E 139°47'5 9.7
2017-Nov-19 07:01N 35°13' E 139°43'0 0.2
2017-Nov-19 06:30N 35°13' E 139°43'0 0.0
2017-Nov-19 06:00N 35°13' E 139°43'0 0.0
2017-Nov-19 05:30N 35°13' E 139°43'2 4.3
2017-Nov-19 05:00N 35°12' E 139°46'0 0.5
2017-Nov-19 04:31N 35°13' E 139°45'2 3.9
2017-Nov-19 04:00N 35°13' E 139°43'0 0.0
2017-Nov-19 03:30N 35°13' E 139°43'0 0.0
2017-Nov-19 03:00N 35°13' E 139°43'0 0.0
2017-Nov-19 02:30N 35°13' E 139°43'0 0.0
2017-Nov-19 02:00N 35°13' E 139°43'0 0.0
2017-Nov-19 01:30N 35°13' E 139°43'0 0.0
2017-Nov-19 01:00N 35°13' E 139°43'3 6.3
2017-Nov-19 00:30N 35°11' E 139°45'1 1.6
2017-Nov-19 00:00N 35°11' E 139°46'4 7.4
2017-Nov-18 23:30N 35°13' E 139°43'0 0.0
2017-Nov-18 23:00N 35°13' E 139°43'0 0.0
2017-Nov-18 22:30N 35°13' E 139°43'0 0.0
2017-Nov-18 22:00N 35°13' E 139°43'1 1.0
2017-Nov-18 21:30N 35°13' E 139°44'4 8.8
2017-Nov-18 21:00N 35°10' E 139°47'3 6.3
2017-Nov-18 20:30N 35°12' E 139°45'2 3.5
2017-Nov-18 20:00N 35°13' E 139°43'1 2.0
2017-Nov-18 19:29N 35°13' E 139°44'4 7.7
2017-Nov-18 19:00N 35°10' E 139°47'5 9.2
2017-Nov-18 18:30N 35°13' E 139°43'0 0.1
2017-Nov-18 18:00N 35°13' E 139°43'0 0.0
2017-Nov-18 17:30N 35°13' E 139°43'0 0.0
2017-Nov-18 17:00N 35°13' E 139°43'0 0.0
2017-Nov-18 16:30N 35°13' E 139°43'0 0.0
2017-Nov-18 16:00N 35°13' E 139°43'0 0.0
2017-Nov-18 15:30N 35°13' E 139°43'0 0.0
2017-Nov-18 15:00N 35°13' E 139°43'0 0.0
2017-Nov-18 14:30N 35°13' E 139°43'0 0.0
2017-Nov-18 14:00N 35°13' E 139°43'0 0.0
2017-Nov-18 13:30N 35°13' E 139°43'3 5.1
2017-Nov-18 13:00N 35°11' E 139°45'2 3.4
2017-Nov-18 12:30N 35°11' E 139°47'4 8.0
2017-Nov-18 12:01N 35°13' E 139°43'0 0.0
2017-Nov-18 11:31N 35°13' E 139°43'0 0.0
2017-Nov-18 11:01N 35°13' E 139°43'0 0.0
2017-Nov-18 10:30N 35°13' E 139°43'0 0.0
2017-Nov-18 10:01N 35°13' E 139°43'0 0.0
2017-Nov-18 09:31N 35°13' E 139°43'0 0.0
2017-Nov-18 09:01N 35°13' E 139°43'1 1.5
2017-Nov-18 08:31N 35°13' E 139°44'1 1.7
2017-Nov-18 08:01N 35°13' E 139°45'1 2.6
2017-Nov-18 07:30N 35°13' E 139°43'0 0.4
2017-Nov-18 07:00N 35°13' E 139°43'0 0.0
2017-Nov-18 06:30N 35°13' E 139°43'5 9.6
2017-Nov-18 06:01N 35°09' E 139°47'1 2.2
2017-Nov-18 05:30N 35°11' E 139°47'4 7.8
2017-Nov-18 05:00N 35°13' E 139°43'0 0.0
2017-Nov-18 04:31N 35°13' E 139°43'0 0.6
2017-Nov-18 04:01N 35°13' E 139°43'2 3.9
2017-Nov-18 03:30N 35°13' E 139°46'1 2.3
2017-Nov-18 03:01N 35°13' E 139°45'1 2.4
2017-Nov-18 02:31N 35°13' E 139°43'0 0.0
2017-Nov-18 02:01N 35°13' E 139°43'0 0.0
2017-Nov-18 01:30N 35°13' E 139°43'0 0.0
2017-Nov-18 01:01N 35°13' E 139°43'0 0.0
2017-Nov-18 00:31N 35°13' E 139°43'1 2.7
2017-Nov-18 00:01N 35°13' E 139°45'3 5.9
2017-Nov-17 23:30N 35°11' E 139°47'4 8.7
2017-Nov-17 23:01N 35°13' E 139°43'0 0.1
2017-Nov-17 22:31N 35°13' E 139°43'2 4.8
2017-Nov-17 22:01N 35°12' E 139°45'2 3.9
2017-Nov-17 21:30N 35°11' E 139°47'4 8.5
2017-Nov-17 21:00N 35°13' E 139°43'0 0.0
2017-Nov-17 20:31N 35°13' E 139°43'2 4.2
2017-Nov-17 20:01N 35°13' E 139°46'2 4.2
2017-Nov-17 19:30N 35°13' E 139°43'0 0.0
2017-Nov-17 19:00N 35°13' E 139°43'0 0.0
2017-Nov-17 18:30N 35°13' E 139°43'0 0.0
2017-Nov-17 18:00N 35°13' E 139°43'0 0.0
2017-Nov-17 17:30N 35°13' E 139°43'0 0.0
2017-Nov-17 17:01N 35°13' E 139°43'0 1.0
2017-Nov-17 16:30N 35°13' E 139°44'2 3.4
2017-Nov-17 16:00N 35°14' E 139°46'2 4.3
2017-Nov-17 15:31N 35°13' E 139°43'0 0.0
2017-Nov-17 15:01N 35°13' E 139°43'0 0.0
2017-Nov-17 14:31N 35°13' E 139°43'0 0.0
2017-Nov-17 14:01N 35°13' E 139°43'0 0.0
2017-Nov-17 13:30N 35°13' E 139°43'0 0.0
2017-Nov-17 13:00N 35°13' E 139°43'3 5.2
2017-Nov-17 12:30N 35°12' E 139°46'1 2.4
2017-Nov-17 12:01N 35°13' E 139°46'2 4.2
2017-Nov-17 11:30N 35°13' E 139°43'0 0.0
2017-Nov-17 11:01N 35°13' E 139°43'0 0.0
2017-Nov-17 10:30N 35°13' E 139°43'0 0.0
2017-Nov-17 10:01N 35°13' E 139°43'2 4.8
2017-Nov-17 09:30N 35°13' E 139°46'1 1.9
2017-Nov-17 09:01N 35°13' E 139°45'1 2.3
2017-Nov-17 08:30N 35°12' E 139°46'0 1.0
2017-Nov-17 08:00N 35°13' E 139°46'2 4.3
2017-Nov-17 07:31N 35°13' E 139°43'0 0.0
2017-Nov-17 07:01N 35°13' E 139°43'2 3.5
2017-Nov-17 06:31N 35°13' E 139°45'2 3.5
2017-Nov-17 06:01N 35°13' E 139°43'0 0.0
2017-Nov-17 05:31N 35°13' E 139°43'0 0.0
2017-Nov-17 05:01N 35°13' E 139°43'1 2.5
2017-Nov-17 04:30N 35°13' E 139°45'1 2.1
2017-Nov-17 04:01N 35°13' E 139°46'4 7.1
2017-Nov-17 03:31N 35°10' E 139°47'1 1.2
2017-Nov-17 03:00N 35°10' E 139°47'4 9.0
2017-Nov-17 02:31N 35°13' E 139°43'0 0.0
2017-Nov-17 02:01N 35°13' E 139°43'0 0.0
2017-Nov-17 01:30N 35°13' E 139°43'0 0.0
2017-Nov-17 01:00N 35°13' E 139°43'0 0.0
2017-Nov-17 00:31N 35°13' E 139°43'3 5.5
2017-Nov-17 00:01N 35°12' E 139°46'1 1.8
2017-Nov-16 23:30N 35°13' E 139°45'2 3.8
2017-Nov-16 23:01N 35°13' E 139°43'0 0.0
2017-Nov-16 22:30N 35°13' E 139°43'0 0.0
2017-Nov-16 22:01N 35°13' E 139°43'2 4.5
2017-Nov-16 21:31N 35°13' E 139°46'1 1.1
2017-Nov-16 21:01N 35°13' E 139°46'4 8.0
2017-Nov-16 20:30N 35°09' E 139°47'2 3.7
2017-Nov-16 20:00N 35°11' E 139°45'3 5.9
2017-Nov-16 19:30N 35°13' E 139°43'2 3.8
2017-Nov-16 19:00N 35°13' E 139°45'1 2.6
2017-Nov-16 18:30N 35°13' E 139°44'1 1.2
2017-Nov-16 18:00N 35°13' E 139°43'0 0.0
2017-Nov-16 17:30N 35°13' E 139°43'0 0.0
2017-Nov-16 17:00N 35°13' E 139°43'0 0.0
2017-Nov-16 16:30N 35°13' E 139°43'0 0.0
2017-Nov-16 16:00N 35°13' E 139°43'0 0.0
2017-Nov-16 15:30N 35°13' E 139°43'0 0.0
2017-Nov-16 15:00N 35°13' E 139°43'0 0.0
2017-Nov-16 14:30N 35°13' E 139°43'0 0.0
2017-Nov-16 14:00N 35°13' E 139°43'0 0.0
2017-Nov-16 13:30N 35°13' E 139°43'0 0.0
2017-Nov-16 13:00N 35°13' E 139°43'0 0.0
2017-Nov-16 12:30N 35°13' E 139°43'0 0.0
2017-Nov-16 12:00N 35°13' E 139°43'2 3.3
2017-Nov-16 11:30N 35°12' E 139°45'1 1.8
2017-Nov-16 11:00N 35°13' E 139°45'2 4.3
2017-Nov-16 10:30N 35°11' E 139°46'1 2.5
2017-Nov-16 10:00N 35°10' E 139°47'4 8.7
2017-Nov-16 09:30N 35°13' E 139°43'0 0.0
2017-Nov-16 09:00N 35°13' E 139°43'2 4.7
2017-Nov-16 08:30N 35°12' E 139°46'1 2.9
2017-Nov-16 08:00N 35°13' E 139°45'2 3.5
2017-Nov-16 07:30N 35°13' E 139°43'0 0.0
2017-Nov-16 07:00N 35°13' E 139°43'2 4.2
2017-Nov-16 06:30N 35°13' E 139°46'1 1.4
2017-Nov-16 06:00N 35°14' E 139°45'2 3.6
2017-Nov-16 05:30N 35°13' E 139°43'0 0.0
2017-Nov-16 05:00N 35°13' E 139°43'0 0.0
2017-Nov-16 04:30N 35°13' E 139°43'0 0.0
2017-Nov-16 04:00N 35°13' E 139°43'0 0.0
2017-Nov-16 03:30N 35°13' E 139°43'2 3.8
2017-Nov-16 03:00N 35°12' E 139°45'1 1.9
2017-Nov-16 02:30N 35°13' E 139°45'2 3.6
2017-Nov-16 02:00N 35°13' E 139°43'0 0.0
2017-Nov-16 01:30N 35°13' E 139°43'0 0.0
2017-Nov-16 01:00N 35°13' E 139°43'0 0.0
2017-Nov-16 00:30N 35°13' E 139°43'0 0.0
2017-Nov-16 00:00N 35°13' E 139°43'0 0.0
2017-Nov-15 23:30N 35°13' E 139°43'5 9.5
2017-Nov-15 23:00N 35°09' E 139°46'2 4.3
2017-Nov-15 22:30N 35°11' E 139°45'3 5.3
2017-Nov-15 22:00N 35°13' E 139°43'0 0.0
2017-Nov-15 21:30N 35°13' E 139°43'0 0.0
2017-Nov-15 21:00N 35°13' E 139°43'0 0.0
2017-Nov-15 20:30N 35°13' E 139°43'2 3.5
2017-Nov-15 20:00N 35°13' E 139°45'1 1.9
2017-Nov-15 19:31N 35°12' E 139°45'2 3.7
2017-Nov-15 19:01N 35°10' E 139°46'4 7.6
2017-Nov-15 18:30N 35°13' E 139°43'0 0.0
2017-Nov-15 18:00N 35°13' E 139°43'0 0.0
2017-Nov-15 17:30N 35°13' E 139°43'0 0.0
2017-Nov-15 17:00N 35°13' E 139°43'0 0.0
2017-Nov-15 16:30N 35°13' E 139°43'0 0.0
2017-Nov-15 16:00N 35°13' E 139°43'0 0.0
2017-Nov-15 15:30N 35°13' E 139°43'0 0.0
2017-Nov-15 15:00N 35°13' E 139°43'0 0.0
2017-Nov-15 14:30N 35°13' E 139°43'0 0.0
2017-Nov-15 14:00N 35°13' E 139°43'2 4.9
2017-Nov-15 13:30N 35°12' E 139°46'1 1.0
2017-Nov-15 13:00N 35°13' E 139°46'2 4.3
2017-Nov-15 12:30N 35°13' E 139°43'0 0.0
2017-Nov-15 12:00N 35°13' E 139°43'0 0.0
2017-Nov-15 11:30N 35°13' E 139°43'0 0.0
2017-Nov-15 11:00N 35°13' E 139°43'2 4.4
2017-Nov-15 10:30N 35°13' E 139°46'1 1.1
2017-Nov-15 10:00N 35°13' E 139°46'2 4.0
2017-Nov-15 09:30N 35°13' E 139°43'0 0.0
2017-Nov-15 09:00N 35°13' E 139°43'0 0.0
2017-Nov-15 08:30N 35°13' E 139°43'0 0.0
2017-Nov-15 08:00N 35°13' E 139°43'0 0.0
2017-Nov-15 07:30N 35°13' E 139°43'3 5.6
2017-Nov-15 07:00N 35°12' E 139°46'1 2.1
2017-Nov-15 06:30N 35°13' E 139°46'4 7.3
2017-Nov-15 06:00N 35°09' E 139°47'4 7.8
2017-Nov-15 05:30N 35°13' E 139°45'1 2.4
2017-Nov-15 05:00N 35°13' E 139°43'0 0.0
2017-Nov-15 04:30N 35°13' E 139°43'2 4.8
2017-Nov-15 04:00N 35°11' E 139°45'2 3.0
2017-Nov-15 03:30N 35°10' E 139°46'4 7.7
2017-Nov-15 03:00N 35°13' E 139°43'0 0.0
2017-Nov-15 02:30N 35°13' E 139°43'0 0.0
2017-Nov-15 02:00N 35°13' E 139°43'0 0.0
2017-Nov-15 01:30N 35°13' E 139°43'0 0.0
2017-Nov-15 01:00N 35°13' E 139°43'0 0.0
2017-Nov-15 00:30N 35°13' E 139°43'2 3.3
2017-Nov-15 00:00N 35°12' E 139°45'3 5.4
2017-Nov-14 23:30N 35°10' E 139°47'4 8.6
2017-Nov-14 23:00N 35°13' E 139°43'0 0.0
2017-Nov-14 22:30N 35°13' E 139°43'0 0.0
2017-Nov-14 22:00N 35°13' E 139°43'0 0.0
2017-Nov-14 21:30N 35°13' E 139°43'0 0.0
2017-Nov-14 21:00N 35°13' E 139°43'1 2.2
2017-Nov-14 20:30N 35°13' E 139°44'4 7.8
2017-Nov-14 20:00N 35°10' E 139°47'2 4.1
2017-Nov-14 19:30N 35°12' E 139°46'3 6.3
2017-Nov-14 19:00N 35°13' E 139°43'0 0.0
2017-Nov-14 18:30N 35°13' E 139°43'0 0.0
2017-Nov-14 18:00N 35°13' E 139°43'0 0.0
2017-Nov-14 17:30N 35°13' E 139°43'0 0.0
2017-Nov-14 17:00N 35°13' E 139°43'0 0.0
2017-Nov-14 16:30N 35°13' E 139°43'2 3.6
2017-Nov-14 16:00N 35°12' E 139°45'2 4.7
2017-Nov-14 15:30N 35°11' E 139°47'4 8.3
2017-Nov-14 15:00N 35°13' E 139°43'0 0.1
2017-Nov-14 14:30N 35°13' E 139°43'0 0.0
2017-Nov-14 14:00N 35°13' E 139°43'0 0.0
2017-Nov-14 13:30N 35°13' E 139°43'0 0.0
2017-Nov-14 13:00N 35°13' E 139°43'0 0.0
2017-Nov-14 12:30N 35°13' E 139°43'0 0.0
2017-Nov-14 12:00N 35°13' E 139°43'2 3.5
2017-Nov-14 11:30N 35°13' E 139°45'1 2.4
2017-Nov-14 11:00N 35°14' E 139°46'2 3.9
2017-Nov-14 10:30N 35°12' E 139°45'3 5.3
2017-Nov-14 10:00N 35°10' E 139°47'5 9.1
2017-Nov-14 09:30N 35°13' E 139°43'2 3.7
2017-Nov-14 09:00N 35°13' E 139°45'1 1.2
2017-Nov-14 08:30N 35°13' E 139°46'2 4.0
2017-Nov-14 08:00N 35°13' E 139°43'0 0.0
2017-Nov-14 07:30N 35°13' E 139°43'0 0.0
2017-Nov-14 07:00N 35°13' E 139°43'1 1.6
2017-Nov-14 06:30N 35°13' E 139°44'4 7.5
2017-Nov-14 06:00N 35°10' E 139°47'4 8.8
2017-Nov-14 05:30N 35°13' E 139°43'0 0.1
2017-Nov-14 05:00N 35°13' E 139°43'0 0.0
2017-Nov-14 04:30N 35°13' E 139°43'0 0.0
2017-Nov-14 04:00N 35°13' E 139°43'4 8.7
2017-Nov-14 03:30N 35°10' E 139°46'3 5.1
2017-Nov-14 03:00N 35°12' E 139°45'2 4.3
2017-Nov-14 02:30N 35°13' E 139°43'0 0.0
2017-Nov-14 02:00N 35°13' E 139°43'0 0.0
2017-Nov-14 01:30N 35°13' E 139°43'0 0.0
2017-Nov-14 01:00N 35°13' E 139°43'2 4.1
2017-Nov-14 00:30N 35°12' E 139°45'1 2.4
2017-Nov-14 00:00N 35°13' E 139°45'2 3.8
2017-Nov-13 23:30N 35°13' E 139°43'0 0.0
2017-Nov-13 23:00N 35°13' E 139°43'0 0.0
2017-Nov-13 22:30N 35°13' E 139°43'0 0.0
2017-Nov-13 22:00N 35°13' E 139°43'  
Track history (hours):
 
Tides and Currents Weather Stations Pressure Air Temp Water Temp Dewpoint Dewpoint Depression Visibility Wind Speed Wind Dir Waves Ship Positions

No1 Toa Maru

Last reported at 2017-Nov-23 07:30 UTC. Time now 2017-Nov-23 07:40 UTC.
Position N 35°13' E 139°45'.

Length 38 m; draft 3.2 m.

Type: Tug. MMSI: 431100338.

Date/timePositionNaut miles runAvg speedWind from/ knotsBaromVisibWave heightAir tempDewpointWater temp
2017-Nov-23 07:30N 35°13' E 139°45'3 5.7
2017-Nov-23 07:00N 35°10' E 139°46'0 1.0
2017-Nov-23 06:30N 35°11' E 139°45'3 6.1
2017-Nov-23 05:59N 35°13' E 139°43'0 0.0
2017-Nov-23 05:30N 35°13' E 139°43'0 0.0
2017-Nov-23 05:00N 35°13' E 139°43'0 0.0
2017-Nov-23 04:30N 35°13' E 139°43'5 9.1
2017-Nov-23 04:00N 35°10' E 139°47'1 1.3
2017-Nov-23 03:30N 35°10' E 139°46'4 8.1
2017-Nov-23 03:00N 35°13' E 139°43'0 0.0
2017-Nov-23 02:30N 35°13' E 139°43'0 0.0
2017-Nov-23 02:00N 35°13' E 139°43'0 0.0
2017-Nov-23 01:30N 35°13' E 139°43'0 0.0
2017-Nov-23 01:00N 35°13' E 139°43'2 4.6
2017-Nov-23 00:30N 35°12' E 139°46'1 2.9
2017-Nov-23 00:00N 35°14' E 139°46'2 4.4
2017-Nov-22 23:30N 35°13' E 139°43'0 0.0
2017-Nov-22 23:00N 35°13' E 139°43'0 0.0
2017-Nov-22 22:30N 35°13' E 139°43'4 7.6
2017-Nov-22 22:00N 35°10' E 139°46'1 2.2
2017-Nov-22 21:30N 35°11' E 139°47'4 7.3
2017-Nov-22 21:00N 35°13' E 139°43'0 0.0
2017-Nov-22 20:30N 35°13' E 139°43'1 2.9
2017-Nov-22 20:00N 35°13' E 139°45'1 2.9
2017-Nov-22 19:30N 35°14' E 139°46'  
2017-Nov-20 00:30N 35°13' E 139°44'1 1.3
2017-Nov-20 00:00N 35°13' E 139°43'0 0.0
2017-Nov-19 23:30N 35°13' E 139°43'4 8.5
2017-Nov-19 23:00N 35°10' E 139°46'0 0.7
2017-Nov-19 22:30N 35°10' E 139°46'4 7.7
2017-Nov-19 22:00N 35°13' E 139°43'0 0.0
2017-Nov-19 21:30N 35°13' E 139°43'3 6.0
2017-Nov-19 21:00N 35°11' E 139°45'1 1.4
2017-Nov-19 20:30N 35°11' E 139°46'3 7.0
2017-Nov-19 20:00N 35°13' E 139°43'0 0.0
2017-Nov-19 19:30N 35°13' E 139°43'0 0.0
2017-Nov-19 19:00N 35°13' E 139°43'0 0.0
2017-Nov-19 18:30N 35°13' E 139°43'0 0.8
2017-Nov-19 18:00N 35°13' E 139°44'2 3.3
2017-Nov-19 17:30N 35°13' E 139°46'2 4.1
2017-Nov-19 17:00N 35°13' E 139°43'0 0.0
2017-Nov-19 16:30N 35°13' E 139°43'0 0.0
2017-Nov-19 16:00N 35°13' E 139°43'0 0.0
2017-Nov-19 15:30N 35°13' E 139°43'0 0.0
2017-Nov-19 15:00N 35°13' E 139°43'0 0.3
2017-Nov-19 14:31N 35°13' E 139°43'2 4.1
2017-Nov-19 14:00N 35°13' E 139°46'2 3.2
2017-Nov-19 13:30N 35°13' E 139°44'0 0.9
2017-Nov-19 13:00N 35°13' E 139°43'0 0.0
2017-Nov-19 12:30N 35°13' E 139°43'0 0.0
2017-Nov-19 12:00N 35°13' E 139°43'0 0.0
2017-Nov-19 11:30N 35°13' E 139°43'0 0.0
2017-Nov-19 11:00N 35°13' E 139°43'0 0.0
2017-Nov-19 10:30N 35°13' E 139°43'0 0.0
2017-Nov-19 10:00N 35°13' E 139°43'0 0.0
2017-Nov-19 09:30N 35°13' E 139°43'1 1.5
2017-Nov-19 09:00N 35°13' E 139°44'1 1.9
2017-Nov-19 08:30N 35°13' E 139°45'1 1.8
2017-Nov-19 08:00N 35°12' E 139°45'3 5.6
2017-Nov-19 07:30N 35°09' E 139°47'5 9.7
2017-Nov-19 07:01N 35°13' E 139°43'0 0.2
2017-Nov-19 06:30N 35°13' E 139°43'0 0.0
2017-Nov-19 06:00N 35°13' E 139°43'0 0.0
2017-Nov-19 05:30N 35°13' E 139°43'2 4.3
2017-Nov-19 05:00N 35°12' E 139°46'0 0.5
2017-Nov-19 04:31N 35°13' E 139°45'2 3.9
2017-Nov-19 04:00N 35°13' E 139°43'0 0.0
2017-Nov-19 03:30N 35°13' E 139°43'0 0.0
2017-Nov-19 03:00N 35°13' E 139°43'0 0.0
2017-Nov-19 02:30N 35°13' E 139°43'0 0.0
2017-Nov-19 02:00N 35°13' E 139°43'0 0.0
2017-Nov-19 01:30N 35°13' E 139°43'0 0.0
2017-Nov-19 01:00N 35°13' E 139°43'3 6.3
2017-Nov-19 00:30N 35°11' E 139°45'1 1.6
2017-Nov-19 00:00N 35°11' E 139°46'4 7.4
2017-Nov-18 23:30N 35°13' E 139°43'0 0.0
2017-Nov-18 23:00N 35°13' E 139°43'0 0.0
2017-Nov-18 22:30N 35°13' E 139°43'0 0.0
2017-Nov-18 22:00N 35°13' E 139°43'1 1.0
2017-Nov-18 21:30N 35°13' E 139°44'4 8.8
2017-Nov-18 21:00N 35°10' E 139°47'3 6.3
2017-Nov-18 20:30N 35°12' E 139°45'2 3.5
2017-Nov-18 20:00N 35°13' E 139°43'1 2.0
2017-Nov-18 19:29N 35°13' E 139°44'4 7.7
2017-Nov-18 19:00N 35°10' E 139°47'5 9.2
2017-Nov-18 18:30N 35°13' E 139°43'0 0.1
2017-Nov-18 18:00N 35°13' E 139°43'0 0.0
2017-Nov-18 17:30N 35°13' E 139°43'0 0.0
2017-Nov-18 17:00N 35°13' E 139°43'0 0.0
2017-Nov-18 16:30N 35°13' E 139°43'0 0.0
2017-Nov-18 16:00N 35°13' E 139°43'0 0.0
2017-Nov-18 15:30N 35°13' E 139°43'0 0.0
2017-Nov-18 15:00N 35°13' E 139°43'0 0.0
2017-Nov-18 14:30N 35°13' E 139°43'0 0.0
2017-Nov-18 14:00N 35°13' E 139°43'0 0.0
2017-Nov-18 13:30N 35°13' E 139°43'3 5.1
2017-Nov-18 13:00N 35°11' E 139°45'2 3.4
2017-Nov-18 12:30N 35°11' E 139°47'4 8.0
2017-Nov-18 12:01N 35°13' E 139°43'0 0.0
2017-Nov-18 11:31N 35°13' E 139°43'0 0.0
2017-Nov-18 11:01N 35°13' E 139°43'0 0.0
2017-Nov-18 10:30N 35°13' E 139°43'0 0.0
2017-Nov-18 10:01N 35°13' E 139°43'0 0.0
2017-Nov-18 09:31N 35°13' E 139°43'0 0.0
2017-Nov-18 09:01N 35°13' E 139°43'1 1.5
2017-Nov-18 08:31N 35°13' E 139°44'1 1.7
2017-Nov-18 08:01N 35°13' E 139°45'1 2.6
2017-Nov-18 07:30N 35°13' E 139°43'0 0.4
2017-Nov-18 07:00N 35°13' E 139°43'0 0.0
2017-Nov-18 06:30N 35°13' E 139°43'5 9.6
2017-Nov-18 06:01N 35°09' E 139°47'1 2.2
2017-Nov-18 05:30N 35°11' E 139°47'4 7.8
2017-Nov-18 05:00N 35°13' E 139°43'0 0.0
2017-Nov-18 04:31N 35°13' E 139°43'0 0.6
2017-Nov-18 04:01N 35°13' E 139°43'2 3.9
2017-Nov-18 03:30N 35°13' E 139°46'1 2.3
2017-Nov-18 03:01N 35°13' E 139°45'1 2.4
2017-Nov-18 02:31N 35°13' E 139°43'0 0.0
2017-Nov-18 02:01N 35°13' E 139°43'0 0.0
2017-Nov-18 01:30N 35°13' E 139°43'0 0.0
2017-Nov-18 01:01N 35°13' E 139°43'0 0.0
2017-Nov-18 00:31N 35°13' E 139°43'1 2.7
2017-Nov-18 00:01N 35°13' E 139°45'3 5.9
2017-Nov-17 23:30N 35°11' E 139°47'4 8.7
2017-Nov-17 23:01N 35°13' E 139°43'0 0.1
2017-Nov-17 22:31N 35°13' E 139°43'2 4.8
2017-Nov-17 22:01N 35°12' E 139°45'2 3.9
2017-Nov-17 21:30N 35°11' E 139°47'4 8.5
2017-Nov-17 21:00N 35°13' E 139°43'0 0.0
2017-Nov-17 20:31N 35°13' E 139°43'2 4.2
2017-Nov-17 20:01N 35°13' E 139°46'2 4.2
2017-Nov-17 19:30N 35°13' E 139°43'0 0.0
2017-Nov-17 19:00N 35°13' E 139°43'0 0.0
2017-Nov-17 18:30N 35°13' E 139°43'0 0.0
2017-Nov-17 18:00N 35°13' E 139°43'0 0.0
2017-Nov-17 17:30N 35°13' E 139°43'0 0.0
2017-Nov-17 17:01N 35°13' E 139°43'0 1.0
2017-Nov-17 16:30N 35°13' E 139°44'2 3.4
2017-Nov-17 16:00N 35°14' E 139°46'2 4.3
2017-Nov-17 15:31N 35°13' E 139°43'0 0.0
2017-Nov-17 15:01N 35°13' E 139°43'0 0.0
2017-Nov-17 14:31N 35°13' E 139°43'0 0.0
2017-Nov-17 14:01N 35°13' E 139°43'0 0.0
2017-Nov-17 13:30N 35°13' E 139°43'0 0.0
2017-Nov-17 13:00N 35°13' E 139°43'3 5.2
2017-Nov-17 12:30N 35°12' E 139°46'1 2.4
2017-Nov-17 12:01N 35°13' E 139°46'2 4.2
2017-Nov-17 11:30N 35°13' E 139°43'0 0.0
2017-Nov-17 11:01N 35°13' E 139°43'0 0.0
2017-Nov-17 10:30N 35°13' E 139°43'0 0.0
2017-Nov-17 10:01N 35°13' E 139°43'2 4.8
2017-Nov-17 09:30N 35°13' E 139°46'1 1.9
2017-Nov-17 09:01N 35°13' E 139°45'1 2.3
2017-Nov-17 08:30N 35°12' E 139°46'0 1.0
2017-Nov-17 08:00N 35°13' E 139°46'2 4.3
2017-Nov-17 07:31N 35°13' E 139°43'0 0.0
2017-Nov-17 07:01N 35°13' E 139°43'2 3.5
2017-Nov-17 06:31N 35°13' E 139°45'2 3.5
2017-Nov-17 06:01N 35°13' E 139°43'0 0.0
2017-Nov-17 05:31N 35°13' E 139°43'0 0.0
2017-Nov-17 05:01N 35°13' E 139°43'1 2.5
2017-Nov-17 04:30N 35°13' E 139°45'1 2.1
2017-Nov-17 04:01N 35°13' E 139°46'4 7.1
2017-Nov-17 03:31N 35°10' E 139°47'1 1.2
2017-Nov-17 03:00N 35°10' E 139°47'4 9.0
2017-Nov-17 02:31N 35°13' E 139°43'0 0.0
2017-Nov-17 02:01N 35°13' E 139°43'0 0.0
2017-Nov-17 01:30N 35°13' E 139°43'0 0.0
2017-Nov-17 01:00N 35°13' E 139°43'0 0.0
2017-Nov-17 00:31N 35°13' E 139°43'3 5.5
2017-Nov-17 00:01N 35°12' E 139°46'1 1.8
2017-Nov-16 23:30N 35°13' E 139°45'2 3.8
2017-Nov-16 23:01N 35°13' E 139°43'0 0.0
2017-Nov-16 22:30N 35°13' E 139°43'0 0.0
2017-Nov-16 22:01N 35°13' E 139°43'2 4.5
2017-Nov-16 21:31N 35°13' E 139°46'1 1.1
2017-Nov-16 21:01N 35°13' E 139°46'4 8.0
2017-Nov-16 20:30N 35°09' E 139°47'2 3.7
2017-Nov-16 20:00N 35°11' E 139°45'3 5.9
2017-Nov-16 19:30N 35°13' E 139°43'2 3.8
2017-Nov-16 19:00N 35°13' E 139°45'1 2.6
2017-Nov-16 18:30N 35°13' E 139°44'1 1.2
2017-Nov-16 18:00N 35°13' E 139°43'0 0.0
2017-Nov-16 17:30N 35°13' E 139°43'0 0.0
2017-Nov-16 17:00N 35°13' E 139°43'0 0.0
2017-Nov-16 16:30N 35°13' E 139°43'0 0.0
2017-Nov-16 16:00N 35°13' E 139°43'0 0.0
2017-Nov-16 15:30N 35°13' E 139°43'0 0.0
2017-Nov-16 15:00N 35°13' E 139°43'0 0.0
2017-Nov-16 14:30N 35°13' E 139°43'0 0.0
2017-Nov-16 14:00N 35°13' E 139°43'0 0.0
2017-Nov-16 13:30N 35°13' E 139°43'0 0.0
2017-Nov-16 13:00N 35°13' E 139°43'0 0.0
2017-Nov-16 12:30N 35°13' E 139°43'0 0.0
2017-Nov-16 12:00N 35°13' E 139°43'2 3.3
2017-Nov-16 11:30N 35°12' E 139°45'1 1.8
2017-Nov-16 11:00N 35°13' E 139°45'2 4.3
2017-Nov-16 10:30N 35°11' E 139°46'1 2.5
2017-Nov-16 10:00N 35°10' E 139°47'4 8.7
2017-Nov-16 09:30N 35°13' E 139°43'0 0.0
2017-Nov-16 09:00N 35°13' E 139°43'2 4.7
2017-Nov-16 08:30N 35°12' E 139°46'1 2.9
2017-Nov-16 08:00N 35°13' E 139°45'2 3.5
2017-Nov-16 07:30N 35°13' E 139°43'0 0.0
2017-Nov-16 07:00N 35°13' E 139°43'2 4.2
2017-Nov-16 06:30N 35°13' E 139°46'1 1.4
2017-Nov-16 06:00N 35°14' E 139°45'2 3.6
2017-Nov-16 05:30N 35°13' E 139°43'0 0.0
2017-Nov-16 05:00N 35°13' E 139°43'0 0.0
2017-Nov-16 04:30N 35°13' E 139°43'0 0.0
2017-Nov-16 04:00N 35°13' E 139°43'0 0.0
2017-Nov-16 03:30N 35°13' E 139°43'2 3.8
2017-Nov-16 03:00N 35°12' E 139°45'1 1.9
2017-Nov-16 02:30N 35°13' E 139°45'2 3.6
2017-Nov-16 02:00N 35°13' E 139°43'0 0.0
2017-Nov-16 01:30N 35°13' E 139°43'0 0.0
2017-Nov-16 01:00N 35°13' E 139°43'0 0.0
2017-Nov-16 00:30N 35°13' E 139°43'0 0.0
2017-Nov-16 00:00N 35°13' E 139°43'0 0.0
2017-Nov-15 23:30N 35°13' E 139°43'5 9.5
2017-Nov-15 23:00N 35°09' E 139°46'2 4.3
2017-Nov-15 22:30N 35°11' E 139°45'3 5.3
2017-Nov-15 22:00N 35°13' E 139°43'0 0.0
2017-Nov-15 21:30N 35°13' E 139°43'0 0.0
2017-Nov-15 21:00N 35°13' E 139°43'0 0.0
2017-Nov-15 20:30N 35°13' E 139°43'2 3.5
2017-Nov-15 20:00N 35°13' E 139°45'1 1.9
2017-Nov-15 19:31N 35°12' E 139°45'2 3.7
2017-Nov-15 19:01N 35°10' E 139°46'4 7.6
2017-Nov-15 18:30N 35°13' E 139°43'0 0.0
2017-Nov-15 18:00N 35°13' E 139°43'0 0.0
2017-Nov-15 17:30N 35°13' E 139°43'0 0.0
2017-Nov-15 17:00N 35°13' E 139°43'0 0.0
2017-Nov-15 16:30N 35°13' E 139°43'0 0.0
2017-Nov-15 16:00N 35°13' E 139°43'0 0.0
2017-Nov-15 15:30N 35°13' E 139°43'0 0.0
2017-Nov-15 15:00N 35°13' E 139°43'0 0.0
2017-Nov-15 14:30N 35°13' E 139°43'0 0.0
2017-Nov-15 14:00N 35°13' E 139°43'2 4.9
2017-Nov-15 13:30N 35°12' E 139°46'1 1.0
2017-Nov-15 13:00N 35°13' E 139°46'2 4.3
2017-Nov-15 12:30N 35°13' E 139°43'0 0.0
2017-Nov-15 12:00N 35°13' E 139°43'0 0.0
2017-Nov-15 11:30N 35°13' E 139°43'0 0.0
2017-Nov-15 11:00N 35°13' E 139°43'2 4.4
2017-Nov-15 10:30N 35°13' E 139°46'1 1.1
2017-Nov-15 10:00N 35°13' E 139°46'2 4.0
2017-Nov-15 09:30N 35°13' E 139°43'0 0.0
2017-Nov-15 09:00N 35°13' E 139°43'0 0.0
2017-Nov-15 08:30N 35°13' E 139°43'0 0.0
2017-Nov-15 08:00N 35°13' E 139°43'0 0.0
2017-Nov-15 07:30N 35°13' E 139°43'3 5.6
2017-Nov-15 07:00N 35°12' E 139°46'1 2.1
2017-Nov-15 06:30N 35°13' E 139°46'4 7.3
2017-Nov-15 06:00N 35°09' E 139°47'4 7.8
2017-Nov-15 05:30N 35°13' E 139°45'1 2.4
2017-Nov-15 05:00N 35°13' E 139°43'0 0.0
2017-Nov-15 04:30N 35°13' E 139°43'2 4.8
2017-Nov-15 04:00N 35°11' E 139°45'2 3.0
2017-Nov-15 03:30N 35°10' E 139°46'4 7.7
2017-Nov-15 03:00N 35°13' E 139°43'0 0.0
2017-Nov-15 02:30N 35°13' E 139°43'0 0.0
2017-Nov-15 02:00N 35°13' E 139°43'0 0.0
2017-Nov-15 01:30N 35°13' E 139°43'0 0.0
2017-Nov-15 01:00N 35°13' E 139°43'0 0.0
2017-Nov-15 00:30N 35°13' E 139°43'2 3.3
2017-Nov-15 00:00N 35°12' E 139°45'3 5.4
2017-Nov-14 23:30N 35°10' E 139°47'4 8.6
2017-Nov-14 23:00N 35°13' E 139°43'0 0.0
2017-Nov-14 22:30N 35°13' E 139°43'0 0.0
2017-Nov-14 22:00N 35°13' E 139°43'0 0.0
2017-Nov-14 21:30N 35°13' E 139°43'0 0.0
2017-Nov-14 21:00N 35°13' E 139°43'1 2.2
2017-Nov-14 20:30N 35°13' E 139°44'4 7.8
2017-Nov-14 20:00N 35°10' E 139°47'2 4.1
2017-Nov-14 19:30N 35°12' E 139°46'3 6.3
2017-Nov-14 19:00N 35°13' E 139°43'0 0.0
2017-Nov-14 18:30N 35°13' E 139°43'0 0.0
2017-Nov-14 18:00N 35°13' E 139°43'0 0.0
2017-Nov-14 17:30N 35°13' E 139°43'0 0.0
2017-Nov-14 17:00N 35°13' E 139°43'0 0.0
2017-Nov-14 16:30N 35°13' E 139°43'2 3.6
2017-Nov-14 16:00N 35°12' E 139°45'2 4.7
2017-Nov-14 15:30N 35°11' E 139°47'4 8.3
2017-Nov-14 15:00N 35°13' E 139°43'0 0.1
2017-Nov-14 14:30N 35°13' E 139°43'0 0.0
2017-Nov-14 14:00N 35°13' E 139°43'0 0.0
2017-Nov-14 13:30N 35°13' E 139°43'0 0.0
2017-Nov-14 13:00N 35°13' E 139°43'0 0.0
2017-Nov-14 12:30N 35°13' E 139°43'0 0.0
2017-Nov-14 12:00N 35°13' E 139°43'2 3.5
2017-Nov-14 11:30N 35°13' E 139°45'1 2.4
2017-Nov-14 11:00N 35°14' E 139°46'2 3.9
2017-Nov-14 10:30N 35°12' E 139°45'3 5.3
2017-Nov-14 10:00N 35°10' E 139°47'5 9.1
2017-Nov-14 09:30N 35°13' E 139°43'2 3.7
2017-Nov-14 09:00N 35°13' E 139°45'1 1.2
2017-Nov-14 08:30N 35°13' E 139°46'2 4.0
2017-Nov-14 08:00N 35°13' E 139°43'0 0.0
2017-Nov-14 07:30N 35°13' E 139°43'0 0.0
2017-Nov-14 07:00N 35°13' E 139°43'1 1.6
2017-Nov-14 06:30N 35°13' E 139°44'4 7.5
2017-Nov-14 06:00N 35°10' E 139°47'4 8.8
2017-Nov-14 05:30N 35°13' E 139°43'0 0.1
2017-Nov-14 05:00N 35°13' E 139°43'0 0.0
2017-Nov-14 04:30N 35°13' E 139°43'0 0.0
2017-Nov-14 04:00N 35°13' E 139°43'4 8.7
2017-Nov-14 03:30N 35°10' E 139°46'3 5.1
2017-Nov-14 03:00N 35°12' E 139°45'2 4.3
2017-Nov-14 02:30N 35°13' E 139°43'0 0.0
2017-Nov-14 02:00N 35°13' E 139°43'0 0.0
2017-Nov-14 01:30N 35°13' E 139°43'0 0.0
2017-Nov-14 01:00N 35°13' E 139°43'2 4.1
2017-Nov-14 00:30N 35°12' E 139°45'1 2.4
2017-Nov-14 00:00N 35°13' E 139°45'2 3.8
2017-Nov-13 23:30N 35°13' E 139°43'0 0.0
2017-Nov-13 23:00N 35°13' E 139°43'0 0.0
2017-Nov-13 22:30N 35°13' E 139°43'0 0.0
2017-Nov-13 22:00N 35°13' E 139°43'  

Dump ship's entire track history